createdAt,value
2023-04-18T08:48:07.913Z,2.75
2023-04-18T09:01:23.377Z,3.17
2023-04-18T09:11:36.530Z,1.40
2023-04-18T09:15:06.512Z,1.55
2023-04-18T09:18:37.571Z,1.50
2023-04-18T09:21:53.948Z,1.20
2023-04-18T09:30:01.303Z,1.10
2023-04-18T09:37:23.864Z,1.10
2023-04-18T09:41:08.993Z,0.85
2023-04-18T09:44:28.390Z,1.07
2023-04-18T09:53:26.355Z,1.50
2023-04-18T09:57:06.830Z,1.13
2023-04-18T10:00:35.230Z,1.25
2023-04-18T10:05:42.699Z,1.23
2023-04-18T10:08:38.806Z,1.45
2023-04-18T10:12:28.235Z,1.40
2023-04-18T10:15:46.622Z,1.13
2023-04-18T10:18:57.926Z,1.10
2023-04-18T10:22:07.506Z,1.47
2023-04-18T10:26:06.140Z,5.88
2023-04-18T10:29:14.577Z,1.92
2023-04-18T10:32:34.180Z,1.98
2023-04-18T10:35:47.560Z,1.13
2023-04-18T10:39:40.572Z,1.57
2023-04-18T10:47:32.068Z,1.45
2023-04-18T10:51:20.984Z,1.70
2023-04-18T10:55:03.405Z,1.60
2023-04-18T10:58:39.325Z,1.40
2023-04-18T11:01:59.860Z,1.63
2023-04-18T11:05:25.804Z,1.90
2023-04-18T11:17:06.737Z,1.70
2023-04-18T11:20:23.426Z,1.83
2023-04-18T11:23:37.291Z,1.23
2023-04-18T11:34:11.074Z,1.93
2023-04-18T11:37:43.691Z,1.42
2023-04-18T11:47:19.826Z,2.55
2023-04-18T11:55:21.708Z,1.80
2023-04-18T11:58:39.578Z,1.10
2023-04-18T12:02:16.209Z,1.75
2023-04-18T12:05:29.949Z,1.30
2023-04-18T12:08:34.597Z,1.88
2023-04-18T12:11:43.696Z,1.80
2023-04-18T12:14:59.943Z,1.75
2023-04-18T12:18:18.412Z,1.88
2023-04-18T12:21:31.212Z,1.90
2023-04-18T12:24:44.723Z,1.60
2023-04-18T12:28:23.101Z,1.20
2023-04-18T12:31:29.893Z,2.25
2023-04-18T12:34:39.798Z,1.90
2023-04-18T12:37:45.705Z,1.98
2023-04-18T12:40:55.659Z,2.00
2023-04-18T12:44:21.347Z,1.27
2023-04-18T12:48:38.107Z,1.98
2023-04-18T12:51:53.213Z,1.90
2023-04-18T12:55:00.376Z,2.30
2023-04-18T12:58:21.405Z,2.28
2023-04-18T13:01:33.455Z,1.40
2023-04-18T13:04:51.065Z,1.48
2023-04-18T13:08:08.533Z,2.60
2023-04-18T13:11:29.062Z,1.40
2023-04-18T13:14:38.395Z,1.50
2023-04-18T13:18:11.615Z,1.20
2023-04-18T13:21:15.369Z,1.90
2023-04-18T13:24:21.183Z,1.80
2023-04-18T13:27:35.206Z,2.13
2023-04-18T13:30:39.061Z,1.77
2023-04-18T13:33:52.506Z,1.50
2023-04-18T13:36:59.063Z,1.30
2023-04-18T13:40:15.688Z,2.33
2023-04-18T13:43:20.187Z,2.20
2023-04-18T13:46:27.944Z,1.75
2023-04-18T13:49:35.719Z,1.63
2023-04-18T13:52:42.982Z,1.25
2023-04-18T13:56:06.338Z,2.03
2023-04-18T13:59:37.081Z,1.20
2023-04-18T14:03:04.264Z,1.52
2023-04-18T14:06:36.634Z,1.10
2023-04-18T14:09:47.785Z,1.10
2023-04-18T14:13:22.815Z,1.77
2023-04-18T14:17:06.991Z,1.40
2023-04-18T14:20:38.736Z,1.45
2023-04-18T14:24:01.495Z,1.60
2023-04-18T14:27:07.704Z,1.67
2023-04-18T14:30:16.606Z,1.45
2023-04-18T14:33:20.294Z,1.60
2023-04-18T14:36:48.746Z,1.58
2023-04-18T14:40:00.517Z,1.07
2023-04-18T14:43:08.605Z,2.28
2023-04-18T14:46:14.033Z,2.17
2023-04-18T14:49:22.635Z,1.58
2023-04-18T14:52:43.635Z,1.55
2023-04-18T14:55:50.584Z,1.73
2023-04-18T14:58:59.302Z,1.25
2023-04-18T15:02:05.842Z,1.10
2023-04-18T15:05:13.192Z,1.58
2023-04-18T15:08:21.102Z,1.38
2023-04-18T15:11:25.299Z,1.80
2023-04-18T15:14:32.907Z,2.70
2023-04-18T15:17:41.196Z,3.50
2023-04-18T15:22:49.208Z,4.20
2023-04-18T15:27:20.918Z,4.07
2023-04-18T15:31:29.898Z,3.30
2023-04-18T15:35:11.869Z,1.85
2023-04-18T15:39:00.263Z,1.70
2023-04-18T15:43:15.365Z,2.17
2023-04-18T15:46:41.499Z,1.50
2023-04-18T15:50:03.272Z,1.37
2023-04-18T15:53:15.964Z,3.00
2023-04-18T15:56:46.060Z,2.67
2023-04-18T16:01:00.640Z,1.73
2023-04-18T16:04:34.944Z,2.33
2023-04-18T16:08:16.491Z,1.70
2023-04-18T16:11:47.497Z,1.80
2023-04-18T16:14:50.683Z,2.33
2023-04-18T16:17:58.178Z,1.50
2023-04-18T16:21:04.302Z,1.27
2023-04-18T16:24:12.922Z,2.13
2023-04-18T16:27:24.278Z,2.20
2023-04-18T16:31:49.855Z,2.22
2023-04-18T16:34:53.378Z,3.03
2023-04-18T16:38:05.180Z,2.20
2023-04-18T16:41:09.059Z,2.47
2023-04-18T16:44:13.523Z,2.45
2023-04-18T16:47:31.727Z,3.10
2023-04-18T16:50:55.149Z,3.20
2023-04-18T16:54:08.577Z,3.00
2023-04-18T16:57:21.660Z,2.90
2023-04-18T17:00:26.027Z,3.58
2023-04-18T17:03:32.586Z,5.22
2023-04-18T17:06:36.712Z,5.05
2023-04-18T17:09:42.226Z,5.90
2023-04-18T17:12:49.317Z,5.03
2023-04-18T17:15:53.987Z,4.15
2023-04-18T17:19:04.438Z,5.88
2023-04-18T17:22:09.153Z,5.57
2023-04-18T17:25:15.013Z,4.47
2023-04-18T17:28:22.065Z,6.10
2023-04-18T17:31:26.209Z,6.28
2023-04-18T17:34:31.426Z,5.60
2023-04-18T17:37:37.358Z,5.63
2023-04-18T17:40:42.571Z,2.80
2023-04-18T17:43:56.897Z,2.20
2023-04-18T17:47:02.621Z,3.53
2023-04-18T17:50:12.764Z,4.18
2023-04-18T17:53:19.417Z,2.50
2023-04-18T17:56:23.205Z,2.83
2023-04-18T17:59:28.526Z,4.33
2023-04-18T18:02:37.416Z,3.85
2023-04-18T18:05:45.619Z,3.22
2023-04-18T18:08:49.960Z,3.10
2023-04-18T18:11:57.537Z,2.92
2023-04-18T18:15:05.928Z,2.10
2023-04-18T18:18:18.388Z,2.88
2023-04-18T18:21:36.731Z,2.90
2023-04-18T18:24:48.504Z,2.80
2023-04-18T18:27:54.959Z,3.40
2023-04-18T18:31:04.908Z,2.30
2023-04-18T18:34:14.817Z,2.63
2023-04-18T18:37:24.128Z,2.50
2023-04-18T18:40:31.691Z,3.42
2023-04-18T18:43:39.583Z,2.22
2023-04-18T18:46:43.525Z,1.67
2023-04-18T18:49:50.763Z,1.60
2023-04-18T18:52:54.640Z,2.22
2023-04-18T18:56:02.932Z,2.25
2023-04-18T18:59:17.376Z,2.40
2023-04-18T19:02:26.298Z,2.20
2023-04-18T19:05:37.429Z,3.05
2023-04-18T19:08:42.989Z,2.35
2023-04-18T19:11:50.247Z,2.80
2023-04-18T19:14:54.048Z,3.15
2023-04-18T19:17:59.288Z,3.10
2023-04-18T19:21:05.000Z,4.10
2023-04-18T19:24:09.100Z,3.75
2023-04-18T19:27:12.597Z,2.05
2023-04-18T19:30:17.072Z,2.78
2023-04-18T19:33:21.581Z,2.63
2023-04-18T19:36:25.375Z,3.17
2023-04-18T19:39:29.599Z,3.25
2023-04-18T19:42:33.676Z,3.08
2023-04-18T19:45:37.364Z,3.00
2023-04-18T19:48:41.136Z,2.17
2023-04-18T19:51:45.718Z,2.75
2023-04-18T19:54:55.885Z,2.75
2023-04-18T19:58:01.862Z,2.40
2023-04-18T20:01:07.203Z,3.60
2023-04-18T20:04:12.356Z,3.23
2023-04-18T20:07:20.971Z,3.10
2023-04-18T20:10:24.704Z,4.43
2023-04-18T20:13:28.982Z,3.65
2023-04-18T20:16:33.836Z,3.50
2023-04-18T20:19:38.327Z,3.17
2023-04-18T20:22:45.148Z,2.65
2023-04-18T20:25:48.526Z,3.70
2023-04-18T20:28:51.942Z,3.38
2023-04-18T20:31:56.215Z,2.63
2023-04-18T20:35:00.308Z,3.30
2023-04-18T20:38:03.836Z,3.25
2023-04-18T20:41:12.531Z,3.38
2023-04-18T20:44:22.429Z,3.00
2023-04-18T20:47:27.996Z,3.40
2023-04-18T20:50:33.288Z,3.47
2023-04-18T20:53:38.203Z,2.85
2023-04-18T20:56:41.904Z,2.85
2023-04-18T20:59:45.819Z,3.08
2023-04-18T21:02:49.089Z,3.03
2023-04-18T21:05:53.196Z,2.80
2023-04-18T21:08:56.751Z,3.22
2023-04-18T21:12:00.390Z,2.97
2023-04-18T21:15:05.672Z,2.90
2023-04-18T21:18:10.034Z,2.30
2023-04-18T21:21:13.452Z,2.60
2023-04-18T21:24:18.382Z,2.38
2023-04-18T21:27:22.362Z,2.60
2023-04-18T21:30:26.052Z,2.42
2023-04-18T21:33:29.536Z,2.92
2023-04-18T21:36:33.143Z,2.87
2023-04-18T21:39:43.887Z,3.05
2023-04-18T21:42:55.754Z,2.90
2023-04-18T21:46:00.927Z,2.95
2023-04-18T21:49:05.894Z,3.03
2023-04-18T21:52:10.108Z,2.47
2023-04-18T21:55:16.452Z,2.78
2023-04-18T21:58:24.340Z,2.83
2023-04-18T22:01:34.608Z,2.78
2023-04-18T22:04:52.572Z,2.78
2023-04-18T22:08:00.458Z,2.67
2023-04-18T22:11:22.480Z,2.60
2023-04-18T22:14:36.086Z,2.80
2023-04-18T22:17:42.402Z,2.80
2023-04-18T22:20:55.331Z,2.80
2023-04-18T22:24:04.963Z,2.50
2023-04-18T22:27:10.082Z,2.58
2023-04-18T22:30:27.284Z,2.80
2023-04-18T22:33:31.498Z,2.47
2023-04-18T22:36:38.140Z,2.80
2023-04-18T22:39:42.133Z,2.60
2023-04-18T22:42:47.051Z,2.63
2023-04-18T22:45:52.735Z,2.78
2023-04-18T22:49:08.562Z,2.90
2023-04-18T22:52:28.300Z,2.10
2023-04-18T22:55:33.234Z,2.50
2023-04-18T22:58:52.169Z,2.40
2023-04-18T23:02:07.999Z,2.50
2023-04-18T23:05:16.540Z,2.30
2023-04-18T23:08:22.712Z,2.70
2023-04-18T23:11:35.175Z,3.37
2023-04-18T23:14:41.422Z,2.90
2023-04-18T23:17:56.236Z,2.70
2023-04-18T23:21:05.137Z,2.95
2023-04-18T23:24:15.329Z,3.20
2023-04-18T23:27:20.072Z,3.13
2023-04-18T23:30:26.012Z,3.22
2023-04-18T23:33:29.454Z,3.80
2023-04-18T23:36:34.187Z,3.53
2023-04-18T23:39:37.581Z,4.15
2023-04-18T23:42:42.352Z,3.67
2023-04-18T23:45:46.799Z,3.30
2023-04-18T23:48:50.138Z,3.53
2023-04-18T23:51:53.363Z,4.13
2023-04-18T23:55:00.890Z,3.65
2023-04-18T23:58:08.109Z,4.40
